createdAt,value
2022-11-26T00:00:03.044Z,24.36
2022-11-26T00:00:34.484Z,24.45
2022-11-26T00:01:05.971Z,24.37
2022-11-26T00:01:37.391Z,24.32
2022-11-26T00:02:08.883Z,24.31
2022-11-26T00:02:40.439Z,24.33
2022-11-26T00:03:12.001Z,24.36
2022-11-26T00:03:43.474Z,24.32
2022-11-26T00:04:14.970Z,24.36
2022-11-26T00:04:46.401Z,24.35
2022-11-26T00:05:17.818Z,24.33
2022-11-26T00:05:49.209Z,24.41
2022-11-26T00:06:20.727Z,24.39
2022-11-26T00:06:52.142Z,24.36
2022-11-26T00:07:23.601Z,24.40
2022-11-26T00:07:55.189Z,24.43
2022-11-26T00:08:26.740Z,24.43
2022-11-26T00:08:58.216Z,24.36
2022-11-26T00:09:29.726Z,24.38
2022-11-26T00:10:01.242Z,24.39
2022-11-26T00:10:32.779Z,24.35
2022-11-26T00:11:04.230Z,24.30
2022-11-26T00:11:35.637Z,24.28
2022-11-26T00:12:07.103Z,24.31
2022-11-26T00:12:38.512Z,24.35
2022-11-26T00:13:09.926Z,24.37
2022-11-26T00:13:41.385Z,24.32
2022-11-26T00:14:12.796Z,24.29
2022-11-26T00:14:44.261Z,24.37
2022-11-26T00:15:15.637Z,24.34
2022-11-26T00:15:47.057Z,24.34
2022-11-26T00:16:18.485Z,24.36
2022-11-26T00:16:50.002Z,24.37
2022-11-26T00:17:21.473Z,24.35
2022-11-26T00:17:52.861Z,24.35
2022-11-26T00:18:24.271Z,24.36
2022-11-26T00:18:55.717Z,24.34
2022-11-26T00:19:27.112Z,24.31
2022-11-26T00:19:58.579Z,24.33
2022-11-26T00:20:30.033Z,24.36
2022-11-26T00:21:01.454Z,24.43
2022-11-26T00:21:32.860Z,24.40
2022-11-26T00:22:04.253Z,24.45
2022-11-26T00:22:35.646Z,24.40
2022-11-26T00:23:07.047Z,24.41
2022-11-26T00:23:38.469Z,24.41
2022-11-26T00:24:09.882Z,24.44
2022-11-26T00:24:41.263Z,24.36
2022-11-26T00:25:12.680Z,24.38
2022-11-26T00:25:44.104Z,24.33
2022-11-26T00:26:15.576Z,24.31
2022-11-26T00:26:47.058Z,24.30
2022-11-26T00:27:18.423Z,24.36
2022-11-26T00:27:49.899Z,24.30
2022-11-26T00:28:21.303Z,24.30
2022-11-26T00:28:52.756Z,24.29
2022-11-26T00:29:24.237Z,24.28
2022-11-26T00:29:55.668Z,24.26
2022-11-26T00:30:27.044Z,24.28
2022-11-26T00:30:58.427Z,24.28
2022-11-26T00:31:29.982Z,24.33
2022-11-26T00:32:01.465Z,24.36
2022-11-26T00:32:32.965Z,24.36
2022-11-26T00:33:04.358Z,24.37
2022-11-26T00:33:35.757Z,24.37
2022-11-26T00:34:07.213Z,24.37
2022-11-26T00:34:38.998Z,24.25
2022-11-26T00:35:10.671Z,24.29
2022-11-26T00:35:42.102Z,24.32
2022-11-26T00:36:13.534Z,24.28
2022-11-26T00:36:44.952Z,24.31
2022-11-26T00:37:16.369Z,24.29
2022-11-26T00:37:47.747Z,24.32
2022-11-26T00:38:19.143Z,24.40
2022-11-26T00:38:50.610Z,24.34
2022-11-26T00:39:22.084Z,24.34
2022-11-26T00:39:53.568Z,24.34
2022-11-26T00:40:24.996Z,24.34
2022-11-26T00:40:56.416Z,24.39
2022-11-26T00:41:27.851Z,24.45
2022-11-26T00:41:59.221Z,24.42
2022-11-26T00:42:30.668Z,24.40
2022-11-26T00:43:02.249Z,24.41
2022-11-26T00:43:33.969Z,24.35
2022-11-26T00:44:05.404Z,24.31
2022-11-26T00:44:37.205Z,24.34
2022-11-26T00:45:08.856Z,24.40
2022-11-26T00:45:40.311Z,24.41
2022-11-26T00:46:11.898Z,24.39
2022-11-26T00:46:43.421Z,24.34
2022-11-26T00:47:14.845Z,24.28
2022-11-26T00:47:46.241Z,24.41
2022-11-26T00:48:17.661Z,24.42
2022-11-26T00:48:49.062Z,24.44
2022-11-26T00:49:20.489Z,24.43
2022-11-26T00:49:51.967Z,24.45
2022-11-26T00:50:23.408Z,24.36
2022-11-26T00:50:54.784Z,24.38
2022-11-26T00:51:26.214Z,24.39
2022-11-26T00:51:57.630Z,24.40
2022-11-26T00:52:29.106Z,24.34
2022-11-26T00:53:00.554Z,24.38
2022-11-26T00:53:31.943Z,24.36
2022-11-26T00:54:03.467Z,24.38
2022-11-26T00:54:34.933Z,24.39
2022-11-26T00:55:06.634Z,24.41
2022-11-26T00:55:38.040Z,24.44
2022-11-26T00:56:09.486Z,24.34
2022-11-26T00:56:40.893Z,24.31
2022-11-26T00:57:12.324Z,24.31
2022-11-26T00:57:43.754Z,24.33
2022-11-26T00:58:15.151Z,24.38
2022-11-26T00:58:46.565Z,24.35
2022-11-26T00:59:17.967Z,24.34
2022-11-26T00:59:49.360Z,24.41
2022-11-26T01:00:20.827Z,24.40
2022-11-26T01:00:52.304Z,24.37
2022-11-26T01:01:23.838Z,24.39
2022-11-26T01:01:55.357Z,24.38
2022-11-26T01:02:26.880Z,24.39
2022-11-26T01:02:58.351Z,24.40
2022-11-26T01:03:29.805Z,24.38
2022-11-26T01:04:01.233Z,24.43
2022-11-26T01:04:32.637Z,24.41
2022-11-26T01:05:04.103Z,24.47
2022-11-26T01:05:35.491Z,24.39
2022-11-26T01:06:06.937Z,24.41
2022-11-26T01:06:38.355Z,24.50
2022-11-26T01:07:09.875Z,24.47
2022-11-26T01:07:41.708Z,24.51
2022-11-26T01:08:13.194Z,24.50
2022-11-26T01:08:44.567Z,24.51
2022-11-26T01:09:16.042Z,24.45
2022-11-26T01:09:47.519Z,24.44
2022-11-26T01:10:18.921Z,24.49
2022-11-26T01:10:50.344Z,24.47
2022-11-26T01:11:21.767Z,24.47
2022-11-26T01:11:54.459Z,24.49
2022-11-26T01:12:26.101Z,24.50
2022-11-26T01:12:57.487Z,24.49
2022-11-26T01:13:28.905Z,24.53
2022-11-26T01:14:00.388Z,24.53
2022-11-26T01:14:31.773Z,24.52
2022-11-26T01:15:03.146Z,24.54
2022-11-26T01:15:34.595Z,24.57
2022-11-26T01:16:06.045Z,24.51
2022-11-26T01:16:37.620Z,24.52
2022-11-26T01:17:09.238Z,24.53
2022-11-26T01:17:40.691Z,24.54
2022-11-26T01:18:12.109Z,24.55
2022-11-26T01:18:43.485Z,24.53
2022-11-26T01:19:14.955Z,24.51
2022-11-26T01:19:46.366Z,24.45
2022-11-26T01:20:21.501Z,24.50
2022-11-26T01:20:55.511Z,24.51
2022-11-26T01:21:26.940Z,24.55
2022-11-26T01:21:58.320Z,24.53
2022-11-26T01:22:29.731Z,24.53
2022-11-26T01:23:01.223Z,24.53
2022-11-26T01:23:32.649Z,24.52
2022-11-26T01:24:04.045Z,24.53
2022-11-26T01:24:35.747Z,24.48
2022-11-26T01:25:07.387Z,24.47
2022-11-26T01:25:38.803Z,24.48
2022-11-26T01:26:10.226Z,24.45
2022-11-26T01:26:41.604Z,24.47
2022-11-26T01:27:13.019Z,24.51
2022-11-26T01:27:44.407Z,24.54
2022-11-26T01:28:15.814Z,24.45
2022-11-26T01:28:47.267Z,24.43
2022-11-26T01:29:18.700Z,24.43
2022-11-26T01:29:50.115Z,24.47
2022-11-26T01:30:21.601Z,24.42
2022-11-26T01:30:53.042Z,24.46
2022-11-26T01:31:24.512Z,24.48
2022-11-26T01:31:56.021Z,24.45
2022-11-26T01:32:29.591Z,24.49
2022-11-26T01:33:01.211Z,24.48
2022-11-26T01:33:32.667Z,24.50
2022-11-26T01:34:04.116Z,24.49
2022-11-26T01:34:35.712Z,24.46
2022-11-26T01:35:07.211Z,24.52
2022-11-26T01:35:38.620Z,24.51
2022-11-26T01:36:10.017Z,24.57
2022-11-26T01:36:41.451Z,24.53
2022-11-26T01:37:12.882Z,24.55
2022-11-26T01:37:44.292Z,24.55
2022-11-26T01:38:15.706Z,24.50
2022-11-26T01:38:47.179Z,24.47
2022-11-26T01:39:18.611Z,24.50
2022-11-26T01:39:50.065Z,24.53
2022-11-26T01:40:21.517Z,24.54
2022-11-26T01:40:52.995Z,24.50
2022-11-26T01:41:24.411Z,24.50
2022-11-26T01:41:55.814Z,24.50
2022-11-26T01:42:27.204Z,24.52
2022-11-26T01:42:58.603Z,24.53
2022-11-26T01:43:30.099Z,24.50
2022-11-26T01:44:01.503Z,24.51
2022-11-26T01:44:33.014Z,24.45
2022-11-26T01:45:04.436Z,24.49
2022-11-26T01:45:35.907Z,24.47
2022-11-26T01:46:07.400Z,24.50
2022-11-26T01:46:38.879Z,24.55
2022-11-26T01:47:10.265Z,24.55
2022-11-26T01:47:41.682Z,24.54
2022-11-26T01:48:13.178Z,24.51
2022-11-26T01:48:44.593Z,24.53
2022-11-26T01:49:15.967Z,24.55
2022-11-26T01:49:47.388Z,24.48
2022-11-26T01:50:18.833Z,24.54
2022-11-26T01:50:50.250Z,24.51
2022-11-26T01:51:21.664Z,24.53
2022-11-26T01:51:53.142Z,24.52
2022-11-26T01:52:24.591Z,24.49
2022-11-26T01:52:55.966Z,24.51
2022-11-26T01:53:27.344Z,24.57
2022-11-26T01:53:58.748Z,24.60
2022-11-26T01:54:30.139Z,24.58
2022-11-26T01:55:01.520Z,24.55
2022-11-26T01:55:32.942Z,24.54
2022-11-26T01:56:04.321Z,24.51
2022-11-26T01:56:35.753Z,24.48
2022-11-26T01:57:07.153Z,24.51
2022-11-26T01:57:38.553Z,24.54
2022-11-26T01:58:10.114Z,24.51
2022-11-26T01:58:41.495Z,24.58
2022-11-26T01:59:13.021Z,24.52
2022-11-26T01:59:44.516Z,24.51
2022-11-26T02:00:15.949Z,24.49
2022-11-26T02:00:47.496Z,24.54
2022-11-26T02:01:19.041Z,24.49
2022-11-26T02:01:50.508Z,24.52
2022-11-26T02:02:21.949Z,24.52
2022-11-26T02:02:53.391Z,24.54
2022-11-26T02:03:24.803Z,24.56
2022-11-26T02:03:56.263Z,24.55
2022-11-26T02:04:27.668Z,24.58
2022-11-26T02:04:59.070Z,24.55
2022-11-26T02:05:30.459Z,24.52
2022-11-26T02:06:01.885Z,24.53
2022-11-26T02:06:33.317Z,24.51
2022-11-26T02:07:04.751Z,24.48
2022-11-26T02:07:36.242Z,24.44
2022-11-26T02:08:07.761Z,24.41
2022-11-26T02:08:39.196Z,24.41
2022-11-26T02:09:10.735Z,24.48
2022-11-26T02:09:42.158Z,24.45
2022-11-26T02:10:13.621Z,24.40
2022-11-26T02:10:45.134Z,24.41
2022-11-26T02:11:16.640Z,24.38
2022-11-26T02:11:48.246Z,24.39
2022-11-26T02:12:19.869Z,24.48
2022-11-26T02:12:51.417Z,24.39
2022-11-26T02:13:22.921Z,24.39
2022-11-26T02:13:54.337Z,24.34
2022-11-26T02:14:25.775Z,24.40
2022-11-26T02:14:57.191Z,24.33
2022-11-26T02:15:28.623Z,24.31
2022-11-26T02:16:00.083Z,24.29
2022-11-26T02:16:31.601Z,24.29
2022-11-26T02:17:03.027Z,24.28
2022-11-26T02:17:34.444Z,24.24
2022-11-26T02:18:05.841Z,24.23
2022-11-26T02:18:37.236Z,24.24
2022-11-26T02:19:08.638Z,24.23
2022-11-26T02:19:40.096Z,24.24
2022-11-26T02:20:11.491Z,24.26
2022-11-26T02:20:42.944Z,24.31
2022-11-26T02:21:14.409Z,24.28
2022-11-26T02:21:45.827Z,24.30
2022-11-26T02:22:17.242Z,24.27
2022-11-26T02:22:48.711Z,24.28
2022-11-26T02:23:20.138Z,24.31
2022-11-26T02:23:51.497Z,24.30
2022-11-26T02:24:22.918Z,24.27
2022-11-26T02:24:54.332Z,24.29
2022-11-26T02:25:25.714Z,24.33
2022-11-26T02:25:57.122Z,24.32
2022-11-26T02:26:28.583Z,24.27
2022-11-26T02:27:00.037Z,24.26
2022-11-26T02:27:31.501Z,24.23
2022-11-26T02:28:02.956Z,24.25
2022-11-26T02:28:34.332Z,24.21
2022-11-26T02:29:05.756Z,24.27
2022-11-26T02:29:37.159Z,24.30
2022-11-26T02:30:08.604Z,24.28
2022-11-26T02:30:40.046Z,24.28
2022-11-26T02:31:11.525Z,24.32
2022-11-26T02:31:43.115Z,24.31
2022-11-26T02:32:14.557Z,24.31
2022-11-26T02:32:45.993Z,24.28
2022-11-26T02:33:17.397Z,24.27
2022-11-26T02:33:48.788Z,24.26
2022-11-26T02:34:20.159Z,24.27
2022-11-26T02:34:51.576Z,24.25
2022-11-26T02:35:22.955Z,24.26
2022-11-26T02:35:54.319Z,24.29
2022-11-26T02:36:25.739Z,24.33
2022-11-26T02:36:57.201Z,24.29
2022-11-26T02:37:28.635Z,24.29
2022-11-26T02:38:00.149Z,24.29
2022-11-26T02:38:31.551Z,24.30
2022-11-26T02:39:03.040Z,24.29
2022-11-26T02:39:34.484Z,24.30
2022-11-26T02:40:05.986Z,24.25
2022-11-26T02:40:37.425Z,24.28
2022-11-26T02:41:08.825Z,24.28
2022-11-26T02:41:40.213Z,24.32
2022-11-26T02:42:11.674Z,24.33
2022-11-26T02:42:43.076Z,24.29
2022-11-26T02:43:14.491Z,24.29
2022-11-26T02:43:45.888Z,24.24
2022-11-26T02:44:17.297Z,24.23
2022-11-26T02:44:48.697Z,24.22
2022-11-26T02:45:20.111Z,24.25
2022-11-26T02:45:51.640Z,24.26
2022-11-26T02:46:23.168Z,24.27
2022-11-26T02:46:54.722Z,24.29
2022-11-26T02:47:26.250Z,24.31
2022-11-26T02:47:57.692Z,24.27
2022-11-26T02:48:29.108Z,24.24
2022-11-26T02:49:00.522Z,24.25
2022-11-26T02:49:31.919Z,24.25
2022-11-26T02:50:03.320Z,24.22
2022-11-26T02:50:34.726Z,24.29
2022-11-26T02:51:06.248Z,24.37
2022-11-26T02:51:37.637Z,24.34
2022-11-26T02:52:09.013Z,24.29
2022-11-26T02:52:40.468Z,24.31
2022-11-26T02:53:11.959Z,24.27
2022-11-26T02:53:43.350Z,24.25
2022-11-26T02:54:14.822Z,24.28
2022-11-26T02:54:46.201Z,24.30
2022-11-26T02:55:17.602Z,24.30
2022-11-26T02:55:49.030Z,24.29
2022-11-26T02:56:20.419Z,24.27
2022-11-26T02:56:51.834Z,24.27
2022-11-26T02:57:23.236Z,24.29
2022-11-26T02:57:54.669Z,24.32
2022-11-26T02:58:26.095Z,24.36
2022-11-26T02:58:57.551Z,24.35
2022-11-26T02:59:28.967Z,24.35
2022-11-26T03:00:00.435Z,24.40
2022-11-26T03:00:31.886Z,24.36
2022-11-26T03:01:03.470Z,24.31
2022-11-26T03:01:34.969Z,24.28
2022-11-26T03:02:06.382Z,24.30
2022-11-26T03:02:37.784Z,24.29
2022-11-26T03:03:09.280Z,24.28
2022-11-26T03:03:40.688Z,24.26
2022-11-26T03:04:12.192Z,24.27
2022-11-26T03:04:43.687Z,24.25
2022-11-26T03:05:15.102Z,24.25
2022-11-26T03:05:46.580Z,24.30
2022-11-26T03:06:17.964Z,24.36
2022-11-26T03:06:49.383Z,24.32
2022-11-26T03:07:20.824Z,24.40
2022-11-26T03:07:52.337Z,24.36
2022-11-26T03:08:23.862Z,24.29
2022-11-26T03:08:55.242Z,24.29
2022-11-26T03:09:26.595Z,24.30
2022-11-26T03:09:58.007Z,24.30
2022-11-26T03:10:29.396Z,24.35
2022-11-26T03:11:00.856Z,24.29
2022-11-26T03:11:32.316Z,24.31
2022-11-26T03:12:03.913Z,24.29
2022-11-26T03:12:35.402Z,24.27
2022-11-26T03:13:06.836Z,24.26
2022-11-26T03:13:38.313Z,24.28
2022-11-26T03:14:09.693Z,24.41
2022-11-26T03:14:41.160Z,24.36
2022-11-26T03:15:12.580Z,24.32
2022-11-26T03:15:44.003Z,24.31
2022-11-26T03:16:15.518Z,24.31
2022-11-26T03:16:47.017Z,24.32
2022-11-26T03:17:18.477Z,24.34
2022-11-26T03:17:49.901Z,24.33
2022-11-26T03:18:21.309Z,24.34
2022-11-26T03:18:52.798Z,24.37
2022-11-26T03:19:24.186Z,24.32
2022-11-26T03:19:55.575Z,24.38
2022-11-26T03:20:26.993Z,24.36
2022-11-26T03:20:58.422Z,24.37
2022-11-26T03:21:29.797Z,24.37
2022-11-26T03:22:01.270Z,24.33
2022-11-26T03:22:32.718Z,24.35
2022-11-26T03:23:04.131Z,24.36
2022-11-26T03:23:35.556Z,24.35
2022-11-26T03:24:06.994Z,24.31
2022-11-26T03:24:38.749Z,24.32
2022-11-26T03:25:10.299Z,24.45
2022-11-26T03:25:41.730Z,24.44
2022-11-26T03:26:13.135Z,24.40
2022-11-26T03:26:44.547Z,24.41
2022-11-26T03:27:15.953Z,24.33
2022-11-26T03:27:47.382Z,24.29
2022-11-26T03:28:18.806Z,24.32
2022-11-26T03:28:50.214Z,24.30
2022-11-26T03:29:21.646Z,24.29
2022-11-26T03:29:53.084Z,24.30
2022-11-26T03:30:24.487Z,24.29
2022-11-26T03:30:55.906Z,24.40
2022-11-26T03:31:27.442Z,24.36
2022-11-26T03:31:59.016Z,24.41
2022-11-26T03:32:30.464Z,24.41
2022-11-26T03:33:01.853Z,24.41
2022-11-26T03:33:33.269Z,24.37
2022-11-26T03:34:04.646Z,24.44
2022-11-26T03:34:36.345Z,24.45
2022-11-26T03:35:08.075Z,24.36
2022-11-26T03:35:39.461Z,24.37
2022-11-26T03:36:10.952Z,24.36
2022-11-26T03:36:42.451Z,24.35
2022-11-26T03:37:13.886Z,24.39
2022-11-26T03:37:45.325Z,24.37
2022-11-26T03:38:16.768Z,24.33
2022-11-26T03:38:48.176Z,24.33
2022-11-26T03:39:19.650Z,24.32
2022-11-26T03:39:51.152Z,24.30
2022-11-26T03:40:22.621Z,24.26
2022-11-26T03:40:54.026Z,24.27
2022-11-26T03:41:25.421Z,24.30
2022-11-26T03:41:56.892Z,24.28
2022-11-26T03:42:28.328Z,24.29
2022-11-26T03:42:59.812Z,24.29
2022-11-26T03:43:31.261Z,24.26
2022-11-26T03:44:02.673Z,24.22
2022-11-26T03:44:34.113Z,24.31
2022-11-26T03:45:05.521Z,24.35
2022-11-26T03:45:37.029Z,24.27
2022-11-26T03:46:08.553Z,24.29
2022-11-26T03:46:40.034Z,24.30
2022-11-26T03:47:11.502Z,24.31
2022-11-26T03:47:42.968Z,24.27
2022-11-26T03:48:14.376Z,24.29
2022-11-26T03:48:45.786Z,24.36
2022-11-26T03:49:17.195Z,24.32
2022-11-26T03:49:48.660Z,24.31
2022-11-26T03:50:20.063Z,24.35
2022-11-26T03:50:51.479Z,24.33
2022-11-26T03:51:23.140Z,24.33
2022-11-26T03:51:54.641Z,24.36
2022-11-26T03:52:26.066Z,24.34
2022-11-26T03:52:57.437Z,24.34
2022-11-26T03:53:28.854Z,24.35
2022-11-26T03:54:00.267Z,24.34
2022-11-26T03:54:31.679Z,24.37
2022-11-26T03:55:03.106Z,24.35
2022-11-26T03:55:34.546Z,24.32
2022-11-26T03:56:05.955Z,24.30
2022-11-26T03:56:37.373Z,24.27
2022-11-26T03:57:08.855Z,24.24
2022-11-26T03:57:40.260Z,24.22
2022-11-26T03:58:11.687Z,24.28
2022-11-26T03:58:43.086Z,24.25
2022-11-26T03:59:14.509Z,24.23
2022-11-26T03:59:45.933Z,24.33
2022-11-26T04:00:17.356Z,24.25
2022-11-26T04:00:48.815Z,24.29
2022-11-26T04:01:20.254Z,24.26
2022-11-26T04:01:51.852Z,24.28
2022-11-26T04:02:23.452Z,24.34
2022-11-26T04:02:54.881Z,24.35
2022-11-26T04:03:26.411Z,24.32
2022-11-26T04:03:57.918Z,24.32
2022-11-26T04:04:29.302Z,24.32
2022-11-26T04:05:00.705Z,24.27
2022-11-26T04:05:32.115Z,24.28
2022-11-26T04:06:03.493Z,24.28
2022-11-26T04:06:34.898Z,24.26
2022-11-26T04:07:06.289Z,24.25
2022-11-26T04:07:37.828Z,24.25
2022-11-26T04:08:09.290Z,24.32
2022-11-26T04:08:40.683Z,24.34
2022-11-26T04:09:12.084Z,24.33
2022-11-26T04:09:43.488Z,24.35
2022-11-26T04:10:14.943Z,24.35
2022-11-26T04:10:46.385Z,24.28
2022-11-26T04:11:17.822Z,24.28
2022-11-26T04:11:49.321Z,24.26
2022-11-26T04:12:20.749Z,24.25
2022-11-26T04:12:52.223Z,24.25
2022-11-26T04:13:23.658Z,24.24
2022-11-26T04:13:55.054Z,24.23
2022-11-26T04:14:26.497Z,24.28
2022-11-26T04:14:57.920Z,24.27
2022-11-26T04:15:29.359Z,24.29
2022-11-26T04:16:00.750Z,24.27
2022-11-26T04:16:32.265Z,24.31
2022-11-26T04:17:03.803Z,24.39
2022-11-26T04:17:35.244Z,24.32
2022-11-26T04:18:06.682Z,24.32
2022-11-26T04:18:38.112Z,24.37
2022-11-26T04:19:09.486Z,24.29
2022-11-26T04:19:40.942Z,24.35
2022-11-26T04:20:12.341Z,24.36
2022-11-26T04:20:43.788Z,24.33
2022-11-26T04:21:15.163Z,24.28
2022-11-26T04:21:46.564Z,24.30
2022-11-26T04:22:18.038Z,24.27
2022-11-26T04:22:49.457Z,24.29
2022-11-26T04:23:20.946Z,24.35
2022-11-26T04:23:52.421Z,24.35
2022-11-26T04:24:23.872Z,24.31
2022-11-26T04:24:55.308Z,24.33
2022-11-26T04:25:26.738Z,24.33
2022-11-26T04:25:58.151Z,24.30
2022-11-26T04:26:29.520Z,24.35
2022-11-26T04:27:00.960Z,24.31
2022-11-26T04:27:32.336Z,24.32
2022-11-26T04:28:03.768Z,24.34
2022-11-26T04:28:35.254Z,24.35
2022-11-26T04:29:06.650Z,24.28
2022-11-26T04:29:38.111Z,24.29
2022-11-26T04:30:09.575Z,24.32
2022-11-26T04:30:40.995Z,24.31
2022-11-26T04:31:12.480Z,24.31
2022-11-26T04:31:44.020Z,24.32
2022-11-26T04:32:15.503Z,24.37
2022-11-26T04:32:46.895Z,24.34
2022-11-26T04:33:18.278Z,24.33
2022-11-26T04:33:49.739Z,24.32
2022-11-26T04:34:21.116Z,24.26
2022-11-26T04:34:52.512Z,24.24
2022-11-26T04:35:23.884Z,24.21
2022-11-26T04:35:55.301Z,24.18
2022-11-26T04:36:26.694Z,24.25
2022-11-26T04:36:58.109Z,24.36
2022-11-26T04:37:29.544Z,24.29
2022-11-26T04:38:00.942Z,24.30
2022-11-26T04:38:32.374Z,24.29
2022-11-26T04:39:03.884Z,24.30
2022-11-26T04:39:35.231Z,24.25
2022-11-26T04:40:06.619Z,24.29
2022-11-26T04:40:38.019Z,24.31
2022-11-26T04:41:09.389Z,24.26
2022-11-26T04:41:40.779Z,24.25
2022-11-26T04:42:12.204Z,24.23
2022-11-26T04:42:43.608Z,24.21
2022-11-26T04:43:15.067Z,24.18
2022-11-26T04:43:46.496Z,24.17
2022-11-26T04:44:17.997Z,24.21
2022-11-26T04:44:49.382Z,24.18
2022-11-26T04:45:20.783Z,24.17
2022-11-26T04:45:52.273Z,24.25
2022-11-26T04:46:23.708Z,24.28
2022-11-26T04:46:55.150Z,24.27
2022-11-26T04:47:26.582Z,24.21
2022-11-26T04:47:57.972Z,24.20
2022-11-26T04:48:29.378Z,24.20
2022-11-26T04:49:00.768Z,24.31
2022-11-26T04:49:32.228Z,24.25
2022-11-26T04:50:03.646Z,24.27
2022-11-26T04:50:35.048Z,24.27
2022-11-26T04:51:06.474Z,24.31
2022-11-26T04:51:37.884Z,24.34
2022-11-26T04:52:09.296Z,24.35
2022-11-26T04:52:40.733Z,24.31
2022-11-26T04:53:12.113Z,24.31
2022-11-26T04:53:43.535Z,24.26
2022-11-26T04:54:14.973Z,24.22
2022-11-26T04:54:46.536Z,24.26
2022-11-26T04:55:17.956Z,24.35
2022-11-26T04:55:49.349Z,24.30
2022-11-26T04:56:20.742Z,24.31
2022-11-26T04:56:52.177Z,24.27
2022-11-26T04:57:23.592Z,24.23
2022-11-26T04:57:58.068Z,24.22
2022-11-26T04:58:29.505Z,24.35
2022-11-26T04:59:00.922Z,24.30
2022-11-26T04:59:32.290Z,24.26
2022-11-26T05:00:03.750Z,24.23
2022-11-26T05:00:35.224Z,24.21
2022-11-26T05:01:06.624Z,24.19
2022-11-26T05:01:38.239Z,24.24
2022-11-26T05:02:09.704Z,24.23
2022-11-26T05:02:41.274Z,24.24
2022-11-26T05:03:12.693Z,24.30
2022-11-26T05:03:44.156Z,24.36
2022-11-26T05:04:15.578Z,24.30
2022-11-26T05:04:46.976Z,24.31
2022-11-26T05:05:18.366Z,24.40
2022-11-26T05:05:49.766Z,24.36
2022-11-26T05:06:21.165Z,24.29
2022-11-26T05:06:52.689Z,24.26
2022-11-26T05:07:24.203Z,24.27
2022-11-26T05:07:55.704Z,24.32
2022-11-26T05:08:27.110Z,24.29
2022-11-26T05:08:58.575Z,24.28
2022-11-26T05:09:30.023Z,24.27
2022-11-26T05:10:01.532Z,24.27
2022-11-26T05:10:32.954Z,24.30
2022-11-26T05:11:04.398Z,24.28
2022-11-26T05:11:35.806Z,24.33
2022-11-26T05:12:07.226Z,24.36
2022-11-26T05:12:38.694Z,24.33
2022-11-26T05:13:10.123Z,24.38
2022-11-26T05:13:41.543Z,24.38
2022-11-26T05:14:12.932Z,24.30
2022-11-26T05:14:44.333Z,24.30
2022-11-26T05:15:15.749Z,24.33
2022-11-26T05:15:47.139Z,24.33
2022-11-26T05:16:18.615Z,24.30
2022-11-26T05:16:50.149Z,24.25
2022-11-26T05:17:21.580Z,24.25
2022-11-26T05:17:53.052Z,24.21
2022-11-26T05:18:24.424Z,24.20
2022-11-26T05:18:55.898Z,24.19
2022-11-26T05:19:27.367Z,24.22
2022-11-26T05:19:58.752Z,24.20
2022-11-26T05:20:30.284Z,24.25
2022-11-26T05:21:01.684Z,24.27
2022-11-26T05:21:33.135Z,24.30
2022-11-26T05:22:04.594Z,24.26
2022-11-26T05:22:35.997Z,24.27
2022-11-26T05:23:07.425Z,24.26
2022-11-26T05:23:38.858Z,24.23
2022-11-26T05:24:10.257Z,24.20
2022-11-26T05:24:41.630Z,24.20
2022-11-26T05:25:13.052Z,24.20
2022-11-26T05:25:44.575Z,24.22
2022-11-26T05:26:15.989Z,24.22
2022-11-26T05:26:50.087Z,24.20
2022-11-26T05:27:23.825Z,24.25
2022-11-26T05:27:55.220Z,24.30
2022-11-26T05:28:26.686Z,24.29
2022-11-26T05:28:58.172Z,24.27
2022-11-26T05:29:29.602Z,24.32
2022-11-26T05:30:01.020Z,24.26
2022-11-26T05:30:32.396Z,24.25
2022-11-26T05:31:03.835Z,24.24
2022-11-26T05:31:35.290Z,24.23
2022-11-26T05:32:06.843Z,24.18
2022-11-26T05:32:38.249Z,24.19
2022-11-26T05:33:09.655Z,24.17
2022-11-26T05:33:41.122Z,24.17
2022-11-26T05:34:12.509Z,24.18
2022-11-26T05:34:43.946Z,24.24
2022-11-26T05:35:15.361Z,24.27
2022-11-26T05:35:46.764Z,24.25
2022-11-26T05:36:18.163Z,24.22
2022-11-26T05:36:49.660Z,24.23
2022-11-26T05:37:21.086Z,24.30
2022-11-26T05:37:52.511Z,24.35
2022-11-26T05:38:23.923Z,24.32
2022-11-26T05:38:55.418Z,24.35
2022-11-26T05:39:26.801Z,24.25
2022-11-26T05:39:58.228Z,24.24
2022-11-26T05:40:29.664Z,24.21
2022-11-26T05:41:01.025Z,24.16
2022-11-26T05:41:32.414Z,24.17
2022-11-26T05:42:08.966Z,24.21
2022-11-26T05:42:40.890Z,24.23
2022-11-26T05:43:12.308Z,24.22
2022-11-26T05:43:43.756Z,24.20
2022-11-26T05:44:15.142Z,24.19
2022-11-26T05:44:46.575Z,24.16
2022-11-26T05:45:17.957Z,24.19
2022-11-26T05:45:49.493Z,24.21
2022-11-26T05:46:21.030Z,24.23
2022-11-26T05:46:52.514Z,24.25
2022-11-26T05:47:23.915Z,24.24
2022-11-26T05:47:55.348Z,24.24
2022-11-26T05:48:26.753Z,24.33
2022-11-26T05:48:58.276Z,24.29
2022-11-26T05:49:29.673Z,24.27
2022-11-26T05:50:01.050Z,24.22
2022-11-26T05:50:32.437Z,24.33
2022-11-26T05:51:03.833Z,24.26
2022-11-26T05:51:35.260Z,24.23
2022-11-26T05:52:06.657Z,24.22
2022-11-26T05:52:38.076Z,24.26
2022-11-26T05:53:09.597Z,24.29
2022-11-26T05:53:41.032Z,24.28
2022-11-26T05:54:12.495Z,24.24
2022-11-26T05:54:43.940Z,24.25
2022-11-26T05:55:15.388Z,24.24
2022-11-26T05:55:46.809Z,24.25
2022-11-26T05:56:18.229Z,24.23
2022-11-26T05:56:49.653Z,24.26
2022-11-26T05:57:21.054Z,24.28
2022-11-26T05:57:52.473Z,24.33
2022-11-26T05:58:23.886Z,24.34
2022-11-26T05:58:55.249Z,24.32
2022-11-26T05:59:26.708Z,24.39
2022-11-26T05:59:58.103Z,24.40
2022-11-26T06:00:29.510Z,24.35
2022-11-26T06:01:00.907Z,24.31
2022-11-26T06:01:32.288Z,24.24
2022-11-26T06:02:03.744Z,24.23
2022-11-26T06:02:35.364Z,24.22
2022-11-26T06:03:06.935Z,24.20
2022-11-26T06:03:38.523Z,24.18
2022-11-26T06:04:10.006Z,24.22
2022-11-26T06:04:41.620Z,24.20
2022-11-26T06:05:13.205Z,24.25
2022-11-26T06:05:44.667Z,24.30
2022-11-26T06:06:16.063Z,24.33
2022-11-26T06:06:47.482Z,24.29
2022-11-26T06:07:18.933Z,24.31
2022-11-26T06:07:50.526Z,24.28
2022-11-26T06:08:22.046Z,24.26
2022-11-26T06:08:53.453Z,24.28
2022-11-26T06:09:24.845Z,24.29
2022-11-26T06:09:56.233Z,24.32
2022-11-26T06:10:27.664Z,24.39
2022-11-26T06:10:59.060Z,24.37
2022-11-26T06:11:30.489Z,24.36
2022-11-26T06:12:01.927Z,24.38
2022-11-26T06:12:33.332Z,24.39
2022-11-26T06:13:04.825Z,24.41
2022-11-26T06:13:36.243Z,24.35
2022-11-26T06:14:07.661Z,24.33
2022-11-26T06:14:42.993Z,24.30
2022-11-26T06:15:14.905Z,24.25
2022-11-26T06:15:46.280Z,24.27
2022-11-26T06:16:17.728Z,24.29
2022-11-26T06:16:49.234Z,24.25
2022-11-26T06:17:20.706Z,24.29
2022-11-26T06:17:52.072Z,24.25
2022-11-26T06:18:23.506Z,24.33
2022-11-26T06:18:54.937Z,24.33
2022-11-26T06:19:26.374Z,24.31
2022-11-26T06:19:57.790Z,24.30
2022-11-26T06:20:29.235Z,24.34
2022-11-26T06:21:00.607Z,24.28
2022-11-26T06:21:32.018Z,24.37
2022-11-26T06:22:03.528Z,24.33
2022-11-26T06:22:34.943Z,24.34
2022-11-26T06:23:06.489Z,24.39
2022-11-26T06:23:37.987Z,24.31
2022-11-26T06:24:09.379Z,24.28
2022-11-26T06:24:40.919Z,24.30
2022-11-26T06:25:12.400Z,24.24
2022-11-26T06:25:43.746Z,24.25
2022-11-26T06:26:15.147Z,24.35
2022-11-26T06:26:46.509Z,24.38
2022-11-26T06:27:17.968Z,24.35
2022-11-26T06:27:49.370Z,24.31
2022-11-26T06:28:20.754Z,24.41
2022-11-26T06:28:52.291Z,24.39
2022-11-26T06:29:27.982Z,24.42
2022-11-26T06:29:59.829Z,24.41
2022-11-26T06:30:31.277Z,24.37
2022-11-26T06:31:02.753Z,24.35
2022-11-26T06:31:34.378Z,24.34
2022-11-26T06:32:05.785Z,24.32
2022-11-26T06:32:37.294Z,24.32
2022-11-26T06:33:08.681Z,24.37
2022-11-26T06:33:40.185Z,24.44
2022-11-26T06:34:11.590Z,24.47
2022-11-26T06:34:44.241Z,24.43
2022-11-26T06:35:15.940Z,24.45
2022-11-26T06:35:47.326Z,24.47
2022-11-26T06:36:18.755Z,24.41
2022-11-26T06:36:50.147Z,24.40
2022-11-26T06:37:21.540Z,24.36
2022-11-26T06:37:52.983Z,24.31
2022-11-26T06:38:24.441Z,24.29
2022-11-26T06:38:55.810Z,24.29
2022-11-26T06:39:27.323Z,24.27
2022-11-26T06:39:58.722Z,24.30
2022-11-26T06:40:30.107Z,24.36
2022-11-26T06:41:01.523Z,24.36
2022-11-26T06:41:32.933Z,24.33
2022-11-26T06:42:04.348Z,24.28
2022-11-26T06:42:35.726Z,24.39
2022-11-26T06:43:07.163Z,24.40
2022-11-26T06:43:38.552Z,24.39
2022-11-26T06:44:09.956Z,24.35
2022-11-26T06:44:41.494Z,24.36
2022-11-26T06:45:13.036Z,24.32